Time;durP1;ratioP1;P1;durP2;ratioP2;P2;SDS_P1;SDS_P2;PMS_P1;PMS_P2;Temp;Humidity;BMP_temperature;BMP_pressure;BME280_temperature;BME280_humidity;BME280_pressure;Samples;Min_cycle;Max_cycle;Signal;HPM_P1;HPM_P2
2022/01/16 00:04:19;;;;;;;41.57;18.37;;;0.90;99.90;;;1.37;70.78;98314.19;4949872;29;20348;-39
2022/01/16 00:06:47;;;;;;;40.37;19.03;;;0.80;99.90;;;1.33;71.08;98328.41;4951275;29;20244;-39
2022/01/16 00:09:16;;;;;;;40.03;17.43;;;0.80;99.90;;;1.14;71.28;98336.50;4949521;28;20055;-39
2022/01/16 00:11:44;;;;;;;60.57;19.80;;;0.60;99.90;;;1.11;70.74;98335.81;4949805;29;20223;-39
2022/01/16 00:14:13;;;;;;;38.67;17.90;;;0.60;99.90;;;1.04;71.13;98351.03;4949441;29;20066;-39
2022/01/16 00:16:41;;;;;;;37.57;17.70;;;0.50;99.90;;;1.05;71.32;98341.38;4950342;29;20391;-39
2022/01/16 00:19:10;;;;;;;36.30;18.60;;;0.50;99.90;;;1.08;71.45;98347.31;4933731;29;20125;-39
2022/01/16 00:21:41;;;;;;;37.33;18.40;;;0.60;99.90;;;1.11;70.98;98343.69;4948887;29;20069;-39
2022/01/16 00:24:11;;;;;;;38.57;17.60;;;0.70;99.90;;;1.14;71.61;98335.63;4949752;29;20065;-39
2022/01/16 00:26:40;;;;;;;37.70;18.70;;;0.70;99.90;;;1.14;71.07;98331.25;4950001;29;20054;-39
2022/01/16 00:29:10;;;;;;;36.70;17.63;;;0.70;99.90;;;1.14;71.36;98319.88;4947312;29;20051;-40
2022/01/16 00:31:40;;;;;;;49.80;18.47;;;0.70;99.90;;;1.17;71.39;98332.84;4948747;29;20059;-39
2022/01/16 00:34:10;;;;;;;37.97;19.07;;;0.70;99.90;;;1.15;71.31;98311.09;4948843;29;20330;-39
2022/01/16 00:36:39;;;;;;;32.90;17.37;;;0.60;99.90;;;1.15;70.82;98303.25;4949188;29;20061;-39
2022/01/16 00:39:07;;;;;;;38.13;17.47;;;0.70;99.90;;;1.13;70.87;98315.59;4948566;29;20069;-39
2022/01/16 00:41:35;;;;;;;86.20;21.60;;;0.60;99.90;;;1.12;70.87;98321.75;4948915;29;20244;-39
2022/01/16 00:44:05;;;;;;;44.73;19.10;;;0.60;99.90;;;1.14;70.67;98336.50;4947912;29;20364;-39
2022/01/16 00:46:33;;;;;;;51.30;21.80;;;0.70;99.90;;;1.17;70.81;98338.09;4948398;29;20069;-39
2022/01/16 00:49:02;;;;;;;32.80;17.73;;;0.70;99.90;;;1.18;71.46;98330.16;4948671;29;20049;-39
2022/01/16 00:51:30;;;;;;;96.30;24.70;;;0.70;99.90;;;1.15;71.29;98335.56;4948824;29;20063;-39
2022/01/16 00:53:58;;;;;;;71.87;21.40;;;0.70;99.90;;;1.08;71.28;98330.72;4947611;29;20070;-38
2022/01/16 00:56:27;;;;;;;54.17;20.50;;;0.60;99.90;;;1.09;71.37;98356.88;4949082;29;20051;-39
2022/01/16 00:58:55;;;;;;;96.50;24.23;;;0.60;99.90;;;1.12;71.04;98338.31;4949206;29;20345;-39
2022/01/16 01:01:23;;;;;;;115.20;24.83;;;0.60;99.90;;;1.07;71.29;98358.75;4948971;29;20548;-39
2022/01/16 01:03:51;;;;;;;42.43;17.40;;;0.60;99.90;;;1.08;71.47;98349.09;4948450;29;20051;-39
2022/01/16 01:06:19;;;;;;;41.03;18.30;;;0.60;99.90;;;1.10;71.33;98353.31;4949979;29;20053;-39
2022/01/16 01:08:47;;;;;;;77.63;20.77;;;0.60;99.90;;;1.13;71.45;98349.69;4949564;29;20345;-39
2022/01/16 01:11:18;;;;;;;54.07;19.73;;;0.60;99.90;;;1.11;71.52;98357.63;4948478;29;20251;-39
2022/01/16 01:14:08;;;;;;;55.73;20.90;;;0.60;99.90;;;0.98;71.67;98362.69;4949738;29;20369;-39
2022/01/16 01:16:51;;;;;;;48.10;19.37;;;0.50;99.90;;;0.95;71.79;98360.25;4950030;29;20065;-39
2022/01/16 01:19:31;;;;;;;35.27;19.63;;;0.50;99.90;;;0.97;71.52;98350.53;4948793;29;20069;-39
2022/01/16 01:22:04;;;;;;;56.50;19.27;;;0.50;99.90;;;0.94;71.19;98285.13;4948492;28;20051;-39
2022/01/16 01:24:35;;;;;;;56.23;19.80;;;0.50;99.90;;;0.86;71.52;98253.25;4952438;29;20526;-39
2022/01/16 01:27:20;;;;;;;49.90;18.40;;;0.40;99.90;;;0.83;71.70;98266.53;4954243;29;20043;-39
2022/01/16 01:29:59;;;;;;;54.87;19.90;;;0.30;99.90;;;0.80;71.00;98277.19;4952405;29;20061;-39
2022/01/16 01:32:27;;;;;;;57.57;18.63;;;0.40;99.90;;;0.72;71.65;98271.53;4952658;29;20047;-39
2022/01/16 01:34:55;;;;;;;52.27;17.57;;;0.20;99.90;;;0.61;71.75;98269.50;4951652;29;20379;-39
2022/01/16 01:37:23;;;;;;;39.47;18.77;;;0.10;99.90;;;0.56;71.34;98306.44;4952784;29;20222;-39
2022/01/16 01:39:51;;;;;;;41.00;19.07;;;0.10;99.90;;;0.62;71.65;98307.91;4952108;29;20059;-39
2022/01/16 01:42:19;;;;;;;40.00;18.67;;;0.10;99.90;;;0.67;71.11;98326.81;4952458;29;20059;-39
2022/01/16 01:53:08;;;;;;;76.03;21.23;;;0.30;99.90;;;0.81;71.78;98356.69;4951383;29;20051;-38
2022/01/16 01:55:36;;;;;;;41.80;19.60;;;0.40;99.90;;;0.82;71.31;98351.38;4952047;29;20404;-38
2022/01/16 01:58:04;;;;;;;46.70;19.40;;;0.40;99.90;;;0.76;71.72;98352.53;4950838;29;20281;-38
2022/01/16 02:00:32;;;;;;;58.03;20.80;;;0.30;99.90;;;0.76;71.78;98364.81;4951192;29;20073;-38
2022/01/16 02:05:33;;;;;;;84.57;24.03;;;0.20;99.90;;;0.72;71.71;98373.75;4952404;29;20184;-38
2022/01/16 02:08:07;;;;;;;40.57;21.07;;;0.20;99.90;;;0.74;71.24;98387.63;4950499;29;20058;-38
2022/01/16 02:10:39;;;;;;;43.38;20.08;;;0.30;99.90;;;0.77;71.44;98387.44;4951966;29;20062;-38
2022/01/16 02:13:17;;;;;;;46.03;20.70;;;0.30;99.90;;;0.82;71.28;98385.44;4952416;29;20047;-38
2022/01/16 02:35:12;;;;;;;39.83;15.70;;;0.40;99.90;;;0.82;71.89;98351.38;4950235;29;20059;-38
2022/01/16 02:37:41;;;;;;;35.27;15.60;;;0.40;99.90;;;0.73;70.98;98357.09;4950760;29;20063;-38
2022/01/16 02:40:18;;;;;;;36.53;15.07;;;0.30;99.90;;;0.71;71.33;98357.16;4951347;29;20234;-38
2022/01/16 02:42:50;;;;;;;30.97;15.50;;;0.20;99.90;;;0.68;71.54;98354.72;4951686;29;20243;-38
2022/01/16 02:45:36;;;;;;;31.03;16.23;;;0.20;99.90;;;0.72;71.71;98344.94;4950547;29;20054;-38
2022/01/16 02:48:07;;;;;;;35.17;15.63;;;0.20;99.90;;;0.68;71.75;98346.88;4951700;29;20417;-38
2022/01/16 02:50:37;;;;;;;31.53;15.40;;;0.20;99.90;;;0.65;71.07;98333.91;4950332;29;20059;-38
2022/01/16 02:53:10;;;;;;;30.43;14.57;;;0.10;99.90;;;0.66;71.24;98330.38;4952208;29;20047;-38
2022/01/16 02:55:41;;;;;;;32.87;15.10;;;0.10;99.90;;;0.59;70.89;98329.00;4951440;29;20557;-38
2022/01/16 02:58:10;;;;;;;30.03;15.13;;;0.10;99.90;;;0.60;71.21;98320.19;4933954;29;20226;-38
2022/01/16 03:00:38;;;;;;;31.50;14.10;;;0.10;99.90;;;0.61;71.66;98306.19;4950279;29;20059;-38
2022/01/16 03:03:06;;;;;;;36.03;14.63;;;0.10;99.90;;;0.57;71.09;98317.75;4951068;29;20059;-39
2022/01/16 03:05:35;;;;;;;29.30;15.40;;;0.10;99.90;;;0.56;71.05;98311.69;4950075;29;20160;-38
2022/01/16 03:08:05;;;;;;;31.97;16.10;;;0.10;99.90;;;0.57;71.25;98318.59;4951950;29;20047;-38
2022/01/16 03:13:21;;;;;;;33.43;15.73;;;0.10;99.90;;;0.55;71.39;98303.91;4951181;29;20373;-38
2022/01/16 03:15:52;;;;;;;30.57;15.40;;;0.10;99.90;;;0.57;71.34;98292.41;4951340;29;20055;-38
2022/01/16 03:23:35;;;;;;;37.00;17.77;;;0.20;99.90;;;0.67;71.06;98290.13;4950336;29;20073;-38
2022/01/16 03:26:03;;;;;;;32.37;17.40;;;0.20;99.90;;;0.68;71.38;98301.44;4950131;29;20050;-38
2022/01/16 03:28:31;;;;;;;34.63;17.37;;;0.20;99.90;;;0.67;71.03;98294.53;4949997;29;20061;-38
2022/01/16 03:31:00;;;;;;;34.67;18.13;;;0.20;99.90;;;0.66;71.59;98298.06;4948948;29;20055;-38
2022/01/16 03:33:28;;;;;;;38.70;17.13;;;0.10;99.90;;;0.62;71.36;98294.78;4948701;29;20050;-38
2022/01/16 03:35:56;;;;;;;33.70;16.50;;;0.00;99.90;;;0.66;71.40;98301.56;4950127;29;20055;-38
2022/01/16 03:38:24;;;;;;;27.37;15.43;;;0.10;99.90;;;0.71;71.80;98302.13;4948790;29;20069;-38
2022/01/16 03:40:52;;;;;;;28.93;15.87;;;0.20;99.90;;;0.71;71.07;98302.13;4949928;29;20245;-38
2022/01/16 03:43:21;;;;;;;26.53;15.27;;;0.20;99.90;;;0.68;71.12;98299.69;4948721;29;20073;-38
2022/01/16 03:45:49;;;;;;;26.57;15.40;;;0.10;99.90;;;0.69;71.07;98309.22;4950022;28;20378;-38
2022/01/16 03:48:17;;;;;;;28.83;15.37;;;0.10;99.90;;;0.67;71.59;98307.63;4950152;29;20246;-38
2022/01/16 03:50:45;;;;;;;29.07;16.33;;;0.10;99.90;;;0.63;71.26;98314.81;4949773;29;20127;-38
2022/01/16 03:53:13;;;;;;;28.93;15.77;;;0.00;99.90;;;0.62;71.24;98312.25;4950558;29;20057;-38
2022/01/16 03:55:41;;;;;;;29.77;15.13;;;0.00;99.90;;;0.59;70.86;98316.75;4950414;29;20047;-38
2022/01/16 03:58:09;;;;;;;25.20;15.20;;;0.00;99.90;;;0.58;70.79;98314.19;4948595;29;20067;-38
2022/01/16 04:00:38;;;;;;;26.17;14.27;;;0.00;99.90;;;0.59;71.46;98318.53;4949189;29;20132;-38
2022/01/16 04:03:06;;;;;;;23.97;14.33;;;0.00;99.90;;;0.58;70.92;98316.81;4950460;29;20054;-38
2022/01/16 04:05:35;;;;;;;29.77;14.40;;;0.00;99.90;;;0.59;71.13;98321.16;4948148;29;20134;-39
2022/01/16 04:08:03;;;;;;;26.20;14.17;;;0.00;99.90;;;0.57;71.46;98321.22;4949110;29;20051;-38
2022/01/16 04:10:31;;;;;;;26.73;14.17;;;0.00;99.90;;;0.56;71.42;98327.41;4948369;29;20043;-38
2022/01/16 04:12:59;;;;;;;27.17;14.27;;;0.00;99.90;;;0.55;70.92;98312.59;4948805;29;20047;-38
2022/01/16 04:15:34;;;;;;;27.43;14.47;;;0.00;99.90;;;0.55;70.67;98323.06;4948433;29;20063;-38
2022/01/16 04:18:05;;;;;;;;;;;0.00;99.90;;;0.48;70.97;98321.72;4950106;29;20055;-39
2022/01/16 04:20:34;;;;;;;27.10;14.47;;;-0.10;99.90;;;0.52;71.17;98306.66;4948335;29;19926;-38
2022/01/16 04:23:04;;;;;;;28.73;13.83;;;0.00;99.90;;;0.51;70.67;98308.47;4948256;29;20055;-38
2022/01/16 04:25:33;;;;;;;28.27;15.13;;;0.00;99.90;;;0.48;71.16;98308.59;4948788;29;20054;-38
2022/01/16 04:28:02;;;;;;;26.87;15.37;;;-0.10;99.90;;;0.52;70.99;98297.03;4949617;29;20357;-38
2022/01/16 04:30:31;;;;;;;25.87;15.23;;;0.00;99.90;;;0.52;71.32;98301.44;4948991;29;20062;-38
2022/01/16 04:32:59;;;;;;;26.07;15.47;;;0.00;99.90;;;0.51;71.12;98291.91;4948118;29;20222;-38
2022/01/16 04:35:27;;;;;;;24.83;13.63;;;0.00;99.90;;;0.54;71.31;98297.81;4947996;29;20249;-38
2022/01/16 04:37:56;;;;;;;33.33;15.87;;;0.00;99.90;;;0.55;70.75;98296.03;4950010;29;20063;-45
2022/01/16 04:40:41;;;;;;;29.97;14.80;;;0.00;99.90;;;0.55;70.96;98296.03;4948748;29;20361;-38
2022/01/16 04:46:01;;;;;;;26.33;15.37;;;0.00;99.90;;;0.56;70.85;98308.19;4942731;29;20050;-38
2022/01/16 04:48:29;;;;;;;26.13;15.53;;;0.00;99.90;;;0.55;71.28;98311.75;4948391;29;20058;-38
2022/01/16 04:50:57;;;;;;;25.50;13.97;;;0.00;99.90;;;0.55;71.26;98312.59;4948805;29;20059;-39
2022/01/16 04:53:25;;;;;;;26.37;14.87;;;0.00;99.90;;;0.50;70.90;98319.00;4948767;29;20355;-38
2022/01/16 04:55:53;;;;;;;22.80;14.00;;;-0.10;99.90;;;0.49;70.68;98326.03;4947404;28;20252;-38
2022/01/16 04:58:22;;;;;;;24.30;13.57;;;0.00;99.90;;;0.54;71.33;98320.53;4949278;29;20051;-38
2022/01/16 05:00:54;;;;;;;21.30;13.07;;;0.00;99.90;;;0.53;71.05;98313.63;4948042;29;20067;-38
2022/01/16 05:03:27;;;;;;;25.43;13.97;;;0.00;99.90;;;0.52;71.20;98304.88;4946749;29;20063;-38
2022/01/16 05:05:55;;;;;;;29.03;13.77;;;0.00;99.90;;;0.49;70.41;98312.94;4946749;29;20043;-38
2022/01/16 05:08:24;;;;;;;29.03;14.93;;;-0.10;99.90;;;0.47;71.05;98304.31;4947636;29;20065;-38
2022/01/16 05:10:55;;;;;;;32.83;15.63;;;-0.10;99.90;;;0.46;71.14;98310.47;4949114;29;20047;-38
2022/01/16 05:13:30;;;;;;;31.17;15.80;;;-0.10;99.90;;;0.51;71.15;98302.38;4948688;29;20639;-38
2022/01/16 05:18:45;;;;;;;31.10;14.33;;;0.00;99.90;;;0.49;71.26;98304.22;4948605;29;20047;-38
2022/01/16 05:21:14;;;;;;;33.97;15.83;;;0.00;99.90;;;0.46;70.68;98299.97;4947391;29;20062;-38
2022/01/16 05:23:42;;;;;;;47.80;16.80;;;0.00;99.90;;;0.44;70.90;98299.22;4948939;29;20063;-38
2022/01/16 05:26:13;;;;;;;34.23;15.47;;;0.00;99.90;;;0.42;70.57;98302.88;4948264;29;20241;-38
2022/01/16 05:28:41;;;;;;;42.20;15.40;;;-0.10;99.90;;;0.38;70.53;98303.00;4949917;29;20243;-38
2022/01/16 05:31:09;;;;;;;30.87;13.60;;;-0.10;99.90;;;0.37;70.35;98293.47;4948034;29;20065;-38
2022/01/16 05:33:37;;;;;;;34.43;14.27;;;-0.20;99.90;;;0.35;70.56;98297.09;4946737;29;20253;-38
2022/01/16 05:36:05;;;;;;;30.50;14.97;;;-0.20;99.90;;;0.30;70.28;98299.97;4948490;29;20349;-38
2022/01/16 05:38:34;;;;;;;30.57;14.03;;;-0.20;99.90;;;0.31;70.53;98308.66;4948983;29;20059;-38
2022/01/16 05:41:02;;;;;;;32.70;14.33;;;-0.20;99.90;;;0.31;70.95;98314.75;4948942;29;20057;-38
2022/01/16 05:43:30;;;;;;;31.30;15.20;;;-0.20;99.90;;;0.31;70.36;98321.75;4948621;29;20065;-38
2022/01/16 05:45:58;;;;;;;27.30;13.43;;;-0.20;99.90;;;0.31;71.21;98322.63;4947802;29;20344;-38
2022/01/16 05:48:27;;;;;;;25.47;12.87;;;-0.20;99.90;;;0.30;70.14;98328.78;4948780;29;20057;-38
2022/01/16 05:50:55;;;;;;;31.23;14.60;;;-0.20;99.90;;;0.27;71.20;98326.34;4947865;29;20213;-38
2022/01/16 05:53:23;;;;;;;28.70;12.93;;;-0.30;99.90;;;0.27;70.59;98323.72;4947964;29;20069;-38
2022/01/16 05:55:52;;;;;;;28.97;13.23;;;-0.30;99.90;;;0.25;70.60;98320.28;4947303;29;20192;-38
2022/01/16 05:58:20;;;;;;;29.93;14.57;;;-0.30;99.90;;;0.26;70.19;98321.16;4949019;29;20051;-38
2022/01/16 06:00:48;;;;;;;35.77;14.60;;;-0.30;99.90;;;0.20;70.02;98317.09;4947904;29;20357;-38
2022/01/16 06:03:16;;;;;;;30.07;13.87;;;-0.40;99.90;;;0.16;70.11;98326.88;4949032;29;20055;-38
2022/01/16 06:05:45;;;;;;;26.53;13.53;;;-0.40;99.90;;;0.16;70.28;98334.72;4947431;29;20054;-38
2022/01/16 06:08:14;;;;;;;29.07;14.87;;;-0.40;99.90;;;0.15;70.19;98332.19;4949804;28;20055;-38
2022/01/16 06:10:42;;;;;;;30.40;14.17;;;-0.40;99.90;;;0.13;70.22;98334.88;4945168;29;20063;-38
2022/01/16 06:13:10;;;;;;;27.93;14.97;;;-0.40;99.90;;;0.10;70.77;98340.28;4950526;29;20055;-38
2022/01/16 06:15:40;;;;;;;27.47;13.33;;;-0.40;99.90;;;0.12;70.89;98337.59;4952673;29;20067;-38
2022/01/16 06:18:08;;;;;;;24.37;13.37;;;-0.40;99.90;;;0.12;70.47;98337.59;4950215;29;20059;-37
2022/01/16 06:20:36;;;;;;;27.43;13.53;;;-0.40;99.90;;;0.08;70.76;98336.91;4950370;29;20051;-38
2022/01/16 06:23:05;;;;;;;25.40;14.70;;;-0.50;99.90;;;0.07;70.08;98345.66;4950133;29;20051;-38
2022/01/16 06:25:33;;;;;;;25.77;14.53;;;-0.50;99.90;;;0.07;70.96;98347.44;4950572;29;20073;-38
2022/01/16 06:28:01;;;;;;;26.87;15.63;;;-0.50;99.90;;;0.06;70.87;98349.22;4950933;29;20055;-37
2022/01/16 06:30:29;;;;;;;27.30;15.10;;;-0.50;99.90;;;0.06;70.84;98351.84;4951051;29;20055;-38
2022/01/16 06:32:57;;;;;;;33.77;16.83;;;-0.50;99.90;;;0.09;70.81;98363.94;4950277;29;20053;-37
2022/01/16 06:35:25;;;;;;;25.03;14.00;;;-0.40;99.90;;;0.07;70.86;98355.31;4951093;29;20049;-37
2022/01/16 06:37:53;;;;;;;29.70;14.97;;;-0.40;99.90;;;0.06;70.63;98364.06;4950693;29;20051;-37
2022/01/16 06:40:22;;;;;;;24.67;14.90;;;-0.40;99.90;;;0.09;70.85;98354.28;4950657;29;20069;-37
2022/01/16 06:42:50;;;;;;;23.27;14.23;;;-0.40;99.90;;;0.08;70.97;98356.97;4951085;29;20047;-38
2022/01/16 06:45:18;;;;;;;31.03;14.50;;;-0.40;99.90;;;0.05;70.19;98352.75;4950122;29;20408;-37
2022/01/16 06:47:46;;;;;;;27.30;15.97;;;-0.50;99.90;;;0.05;70.62;98365.00;4950608;29;20043;-37
2022/01/16 06:50:14;;;;;;;28.07;16.77;;;-0.50;99.90;;;0.01;70.77;98374.78;4951304;29;20061;-37
2022/01/16 06:52:42;;;;;;;30.37;15.30;;;-0.50;99.90;;;-0.08;70.00;98381.34;4942504;29;20055;-37
2022/01/16 06:55:11;;;;;;;26.63;14.53;;;-0.70;99.90;;;-0.09;69.90;98379.66;4933295;29;20047;-37
2022/01/16 06:57:39;;;;;;;24.43;14.00;;;-0.60;99.90;;;-0.06;69.99;98383.88;4949363;29;20071;-38
2022/01/16 07:00:09;;;;;;;30.77;14.53;;;-0.60;99.90;;;-0.20;70.26;98392.41;4950638;29;20067;-38
2022/01/16 07:02:38;;;;;;;25.03;13.80;;;-0.70;99.90;;;-0.22;70.68;98394.25;4951186;29;20058;-38
2022/01/16 07:05:06;;;;;;;24.57;13.17;;;-0.80;99.90;;;-0.23;70.04;98403.03;4950433;29;20249;-37
2022/01/16 07:07:35;;;;;;;23.13;13.33;;;-0.80;99.90;;;-0.23;70.77;98396.03;4950211;29;20050;-37
2022/01/16 07:10:04;;;;;;;23.00;13.80;;;-0.80;99.90;;;-0.25;70.62;98399.66;4949704;29;20058;-38
2022/01/16 07:12:32;;;;;;;23.83;14.83;;;-0.80;99.90;;;-0.27;70.55;98388.38;4950635;29;20525;-37
2022/01/16 07:15:01;;;;;;;24.87;13.27;;;-0.90;99.90;;;-0.24;70.58;98398.72;4950276;29;20065;-37
2022/01/16 07:17:29;;;;;;;25.50;14.23;;;-0.80;99.90;;;-0.21;70.79;98404.66;4950764;29;20065;-38
2022/01/16 07:19:57;;;;;;;22.90;12.63;;;-0.70;99.90;;;-0.20;69.88;98397.66;4950630;28;20357;-37
2022/01/16 07:22:25;;;;;;;22.17;13.87;;;-0.70;99.90;;;-0.22;70.25;98391.63;4949686;29;20261;-37
2022/01/16 07:24:54;;;;;;;27.73;15.40;;;-0.80;99.90;;;-0.27;70.15;98404.97;4950935;29;20059;-37
2022/01/16 07:27:22;;;;;;;24.27;15.07;;;-0.80;99.90;;;-0.24;70.53;98409.19;4950633;29;20047;-37
2022/01/16 07:29:51;;;;;;;28.33;15.90;;;-0.80;99.90;;;-0.25;70.81;98421.44;4949792;29;20469;-38
2022/01/16 07:32:20;;;;;;;29.63;14.47;;;-0.80;99.90;;;-0.25;70.71;98420.59;4951737;29;20059;-38
2022/01/16 07:34:52;;;;;;;25.70;15.30;;;-0.80;99.90;;;-0.26;70.72;98424.97;4949158;29;20361;-39
2022/01/16 07:37:20;;;;;;;31.80;16.03;;;-0.80;99.90;;;-0.24;70.38;98423.13;4950313;29;20357;-39
2022/01/16 07:39:49;;;;;;;30.33;15.13;;;-0.80;99.90;;;-0.20;70.57;98410.72;4949172;29;20063;-38
2022/01/16 07:42:17;;;;;;;35.20;17.17;;;-0.70;99.90;;;-0.20;70.14;98416.81;4949922;29;20063;-39
2022/01/16 07:44:45;;;;;;;31.63;15.63;;;-0.80;99.90;;;-0.22;69.98;98436.97;4950840;29;20070;-39
2022/01/16 07:47:14;;;;;;;25.87;14.73;;;-0.80;99.90;;;-0.22;70.59;98446.59;4949365;29;20663;-39
2022/01/16 07:49:42;;;;;;;24.20;14.67;;;-0.70;99.90;;;-0.31;70.02;98453.13;4950266;29;20043;-39
2022/01/16 07:52:10;;;;;;;24.97;12.67;;;-0.80;99.90;;;-0.43;69.70;98472.88;4949551;29;20055;-39
2022/01/16 07:54:39;;;;;;;26.43;14.33;;;-0.90;99.90;;;-0.52;70.60;98485.56;4948621;29;20298;-39
2022/01/16 07:57:08;;;;;;;26.67;14.40;;;-1.00;99.90;;;-0.59;70.02;98477.13;4948596;29;20069;-39
2022/01/16 07:59:36;;;;;;;31.90;15.07;;;-1.10;99.90;;;-0.50;70.95;98475.88;4947061;29;20379;-39
2022/01/16 08:02:05;;;;;;;27.50;14.90;;;-1.00;99.90;;;-0.58;70.62;98489.31;4948761;29;20066;-38
2022/01/16 08:04:33;;;;;;;31.57;15.43;;;-1.00;99.90;;;-0.81;70.60;98491.19;4948537;29;20051;-38
2022/01/16 08:07:03;;;;;;;37.00;16.43;;;-1.20;99.90;;;-0.84;71.13;98483.47;4949050;29;20369;-39
2022/01/16 08:09:31;;;;;;;26.73;15.80;;;-1.10;99.90;;;-0.72;71.43;98476.81;4947953;29;20261;-39
2022/01/16 08:12:00;;;;;;;29.03;15.40;;;-1.10;99.90;;;-0.65;71.10;98491.34;4948463;29;20047;-39
2022/01/16 08:14:28;;;;;;;31.20;14.87;;;-1.00;99.90;;;-0.54;71.61;98489.97;4948183;29;20043;-39
2022/01/16 08:16:56;;;;;;;33.03;16.40;;;-0.90;99.90;;;-0.42;71.56;98473.72;4947908;29;20059;-38
2022/01/16 08:19:25;;;;;;;33.37;15.87;;;-0.70;99.90;;;-0.30;71.01;98477.53;4947602;29;20051;-39
2022/01/16 08:21:55;;;;;;;34.77;17.00;;;-0.60;99.90;;;-0.21;71.19;98472.69;4946713;29;20082;-39
2022/01/16 08:24:25;;;;;;;26.83;14.03;;;-0.50;99.90;;;-0.20;71.47;98477.00;4947896;29;20265;-39
2022/01/16 08:26:54;;;;;;;35.63;15.43;;;-0.50;99.90;;;-0.18;71.38;98479.56;4947673;29;20051;-39
2022/01/16 08:29:22;;;;;;;31.30;16.23;;;-0.50;99.90;;;-0.09;70.98;98475.66;4947360;29;20055;-39
2022/01/16 08:31:50;;;;;;;26.83;15.63;;;-0.40;99.90;;;-0.05;71.13;98474.59;4947620;28;20340;-39
2022/01/16 08:34:18;;;;;;;35.17;16.50;;;-0.40;99.90;;;-0.02;70.79;98485.75;4948275;29;20237;-39
2022/01/16 08:36:46;;;;;;;32.03;14.33;;;-0.30;99.90;;;0.04;70.92;98484.63;4948711;29;20043;-39
2022/01/16 08:39:17;;;;;;;31.97;16.33;;;-0.30;99.90;;;0.11;70.73;98491.22;4946494;29;20062;-39
2022/01/16 08:41:45;;;;;;;29.50;14.37;;;-0.20;99.90;;;0.08;70.82;98483.53;4948369;29;20062;-39
2022/01/16 08:44:13;;;;;;;28.83;14.53;;;-0.20;99.90;;;-0.06;70.77;98486.84;4946581;29;20055;-39
2022/01/16 08:46:41;;;;;;;32.97;16.23;;;-0.40;99.90;;;-0.04;71.77;98500.69;4948144;29;20069;-39
2022/01/16 08:49:09;;;;;;;29.93;16.00;;;-0.40;99.90;;;-0.01;72.00;98492.66;4946346;29;20051;-39
2022/01/16 08:51:38;;;;;;;40.23;17.73;;;-0.30;99.90;;;0.01;71.25;98497.00;4947142;29;20047;-39
2022/01/16 08:54:06;;;;;;;28.43;16.33;;;-0.30;99.90;;;0.11;72.18;98503.47;4947783;29;20053;-39
2022/01/16 08:56:34;;;;;;;29.63;15.80;;;-0.20;99.90;;;0.20;71.82;98503.03;4948244;29;20615;-39
2022/01/16 08:59:03;;;;;;;39.00;17.57;;;-0.10;99.90;;;0.24;71.49;98507.19;4947637;29;20055;-39
2022/01/16 09:01:31;;;;;;;33.40;17.40;;;0.00;99.90;;;0.31;72.10;98505.97;4946102;29;20062;-39
2022/01/16 09:04:00;;;;;;;36.33;17.50;;;0.10;99.90;;;0.41;71.97;98508.97;4945664;29;20059;-38
2022/01/16 09:06:28;;;;;;;28.33;17.17;;;0.20;99.90;;;0.45;71.64;98509.69;4948283;29;20067;-39
2022/01/16 09:08:56;;;;;;;38.77;18.67;;;0.20;99.90;;;0.50;71.87;98516.34;4946829;29;20535;-39
2022/01/16 09:11:25;;;;;;;38.43;19.27;;;0.30;99.90;;;0.53;71.87;98515.38;4946884;29;20050;-39
2022/01/16 09:14:18;;;;;;;31.07;17.03;;;0.30;99.90;;;0.50;71.07;98515.53;4938878;29;20043;-39
2022/01/16 09:16:46;;;;;;;31.57;17.13;;;0.30;99.90;;;0.46;71.73;98519.22;4944732;29;20349;-38
2022/01/16 09:19:15;;;;;;;37.27;19.60;;;0.20;99.90;;;0.47;71.50;98529.63;4947770;29;20051;-39
2022/01/16 09:21:43;;;;;;;34.33;18.63;;;0.20;99.90;;;0.42;72.34;98522.91;4945834;29;20061;-38
2022/01/16 09:24:12;;;;;;;41.23;19.93;;;0.10;99.90;;;0.43;71.68;98522.84;4929913;29;20384;-39
2022/01/16 09:26:40;;;;;;;36.20;17.37;;;0.20;99.90;;;0.47;71.83;98519.16;4947934;29;20531;-39
2022/01/16 09:29:08;;;;;;;36.67;19.17;;;0.20;99.90;;;0.53;71.73;98524.09;4948341;29;20379;-39
2022/01/16 09:31:36;;;;;;;38.37;18.93;;;0.30;99.90;;;0.43;73.29;98524.59;4948085;29;20053;-39
2022/01/16 09:34:05;;;;;;;43.53;20.10;;;0.20;99.90;;;0.44;72.74;98535.00;4947383;29;20055;-39
2022/01/16 09:36:33;;;;;;;43.30;19.83;;;0.20;99.90;;;0.39;72.70;98539.66;4947767;29;20059;-39
2022/01/16 09:39:01;;;;;;;48.47;23.37;;;0.20;99.90;;;0.43;73.40;98543.81;4948197;29;20062;-39
2022/01/16 09:41:29;;;;;;;41.63;20.33;;;0.30;99.90;;;0.36;73.47;98543.25;4947754;29;20154;-39
2022/01/16 09:43:58;;;;;;;35.80;20.80;;;0.20;99.90;;;0.39;73.90;98542.28;4948719;28;20055;-39
2022/01/16 09:46:26;;;;;;;35.33;20.13;;;0.20;99.90;;;0.48;73.14;98552.28;4952126;29;20247;-38
2022/01/16 09:48:54;;;;;;;46.13;20.93;;;0.30;99.90;;;0.43;74.59;98551.69;4930576;29;20075;-39
2022/01/16 09:55:48;;;;;;;34.90;17.60;;;0.40;99.90;;;0.44;74.48;98568.22;4966252;29;20047;-38
2022/01/16 09:58:17;;;;;;;38.80;20.80;;;0.40;99.90;;;0.46;74.96;98566.38;4966561;29;20055;-39
2022/01/16 10:00:46;;;;;;;35.20;19.23;;;0.40;99.90;;;0.57;74.35;98571.94;4966629;29;20051;-39
2022/01/16 10:03:40;;;;;;;39.00;19.47;;;0.50;99.90;;;0.62;74.64;98571.72;4966763;29;20341;-39
2022/01/16 10:06:17;;;;;;;31.53;16.57;;;0.60;99.90;;;0.42;75.29;98563.06;4967016;29;20047;-38
2022/01/16 10:08:46;;;;;;;35.67;17.57;;;0.50;99.90;;;0.54;74.91;98562.47;4959797;29;20085;-39
2022/01/16 10:11:35;;;;;;;32.77;17.77;;;0.60;99.90;;;0.59;74.92;98563.06;4949658;29;20058;-39
2022/01/16 10:16:41;;;;;;;35.87;17.83;;;0.70;99.90;;;0.69;74.68;98560.00;4966375;29;20349;-39
2022/01/16 10:19:27;;;;;;;28.10;15.27;;;0.70;99.90;;;0.73;74.66;98580.72;4967014;29;20058;-39
2022/01/16 10:22:05;;;;;;;39.70;19.93;;;0.70;99.90;;;0.80;74.36;98564.72;4961059;29;20047;-39
2022/01/16 10:24:35;;;;;;;35.77;16.40;;;0.80;99.90;;;0.60;75.58;98556.06;4967077;29;20055;-39
2022/01/16 10:32:23;;;;;;;38.27;17.33;;;0.70;99.90;;;0.59;75.94;98557.84;4963262;28;20050;-37
2022/01/16 10:35:15;;;;;;;34.30;17.37;;;0.70;99.90;;;0.63;75.36;98569.03;4949955;29;20055;-38
2022/01/16 10:37:47;;;;;;;34.63;16.57;;;0.70;99.90;;;0.64;75.56;98570.72;4926521;29;20051;-38
2022/01/16 10:40:37;;;;;;;31.57;16.97;;;0.80;99.90;;;0.66;76.15;98570.63;4951581;29;20489;-38
2022/01/16 10:43:13;;;;;;;34.60;17.30;;;0.80;99.90;;;0.73;75.87;98583.34;4950466;29;20065;-38
2022/01/16 13:31:00;;;;;;;17.83;10.03;;;1.90;99.90;;;1.94;72.64;98630.47;4947081;29;20229;-39
2022/01/16 13:33:30;;;;;;;19.83;10.57;;;1.90;99.90;;;1.99;72.78;98625.81;4945382;29;20074;-39
2022/01/16 13:36:01;;;;;;;18.93;10.27;;;2.00;99.90;;;2.03;72.79;98627.31;4947913;29;20066;-39
2022/01/16 13:38:30;;;;;;;20.13;11.13;;;2.00;99.90;;;2.13;72.39;98627.66;4947901;29;20061;-39
2022/01/16 13:40:59;;;;;;;18.00;10.00;;;2.10;99.90;;;2.25;72.91;98634.03;4945133;29;20059;-39
2022/01/16 13:43:30;;;;;;;18.23;11.47;;;2.20;99.90;;;2.15;72.23;98642.44;4948237;29;20065;-39
2022/01/16 13:45:58;;;;;;;18.33;9.63;;;2.20;99.90;;;2.11;71.93;98643.53;4947426;29;20057;-39
2022/01/16 13:48:29;;;;;;;24.03;11.50;;;2.10;99.90;;;2.04;71.69;98655.31;4947863;29;20058;-39
2022/01/16 13:51:03;;;;;;;21.73;13.23;;;2.00;99.90;;;2.08;72.48;98648.94;4947637;29;20063;-39
2022/01/16 13:53:33;;;;;;;21.00;12.05;;;2.10;99.90;;;2.16;71.92;98656.41;4929799;29;20627;-39
2022/01/16 13:56:08;;;;;;;24.20;12.93;;;2.10;99.90;;;2.14;72.39;98647.78;4947901;29;20051;-39
2022/01/16 13:58:56;;;;;;;20.80;10.70;;;2.10;99.90;;;2.10;71.93;98648.88;4948576;29;20047;-39
2022/01/16 14:01:31;;;;;;;18.33;10.73;;;2.10;99.90;;;2.14;71.72;98653.03;4946711;29;20051;-39
2022/01/16 14:04:03;;;;;;;16.23;10.23;;;2.10;99.90;;;2.10;71.87;98648.88;4948022;29;20058;-39
2022/01/16 14:06:45;;;;;;;15.73;9.53;;;2.10;99.90;;;2.02;71.50;98659.78;4948718;29;20059;-39
2022/01/16 14:09:14;;;;;;;18.63;10.20;;;2.10;99.90;;;2.14;71.47;98667.00;4946831;29;20051;-39
2022/01/16 14:11:49;;;;;;;17.13;9.50;;;2.10;99.90;;;2.16;71.17;98662.50;4947067;29;20090;-39